SIA1205 HEAX-EDDR
Flight info
| Callsign | SIA1205 |
|---|---|
| Flight time | N/A |
| Altitude | 40000 |
| Route | NOZ1B NOZ L551 ANTAR UN133 KPC DCT BITLA DCT MAVAR DCT AKIKA DCT VEKEN DCT UMVEG DCT IRBIR DCT KUNOD DCT EDISA DCT |
| Aircraft | A359/H-SDE2E3GHIJ3J4J5LM1ORWXY/LB1D1 |
Departure
| Time | 2026-05-05 16:04 |
|---|---|
| Airport | Alexandria International Airport (HEAX) |
Arrival
| Time | N/A |
|---|---|
| Airport | Saarbrücken Airport (EDDR) |
| Time | Latitude | Longitude | Altitude | Speed | Heading |
|---|---|---|---|---|---|
| 2026-05-05 15:38 | 31.19148 | 29.95261 | 8 ft | 0 kts | 314° |
| 2026-05-05 15:56 | 31.19154 | 29.95254 | 8 ft | 2 kts | 314° |
| 2026-05-05 15:56 | 31.19137 | 29.95277 | 9 ft | 4 kts | 300° |
| 2026-05-05 15:57 | 31.19126 | 29.95305 | 10 ft | 4 kts | 285° |
| 2026-05-05 15:57 | 31.19121 | 29.95336 | 11 ft | 4 kts | 273° |
| 2026-05-05 15:57 | 31.19121 | 29.95367 | 11 ft | 2 kts | 269° |
| 2026-05-05 15:57 | 31.19120 | 29.95348 | 11 ft | 4 kts | 269° |
| 2026-05-05 15:58 | 31.19120 | 29.95314 | 11 ft | 1 kts | 269° |
| 2026-05-05 16:01 | 31.19120 | 29.95308 | 8 ft | 2 kts | 269° |
| 2026-05-05 16:01 | 31.19114 | 29.95297 | 8 ft | 1 kts | 224° |
| 2026-05-05 16:01 | 31.19101 | 29.95294 | 8 ft | 3 kts | 177° |
| 2026-05-05 16:01 | 31.19072 | 29.95317 | 8 ft | 9 kts | 140° |
| 2026-05-05 16:02 | 31.19005 | 29.95383 | 8 ft | 17 kts | 155° |
| 2026-05-05 16:02 | 31.18871 | 29.95403 | 7 ft | 18 kts | 186° |
| 2026-05-05 16:02 | 31.18853 | 29.95399 | 6 ft | 4 kts | 190° |
| 2026-05-05 16:02 | 31.18821 | 29.95378 | 6 ft | 0 kts | 221° |
| 2026-05-05 16:03 | 31.18814 | 29.95369 | 6 ft | 2 kts | 223° |
| 2026-05-05 16:03 | 31.18813 | 29.95369 | 6 ft | 0 kts | 223° |
| 2026-05-05 16:03 | 31.18711 | 29.95252 | 7 ft | 62 kts | 225° |
| 2026-05-05 16:03 | 31.18178 | 29.94633 | 9 ft | 151 kts | 226° |
| 2026-05-05 16:04 | 31.17295 | 29.93541 | 295 ft | 205 kts | 232° |
| 2026-05-05 16:04 | 31.16297 | 29.92273 | 1181 ft | 216 kts | 236° |
| 2026-05-05 16:04 | 31.15845 | 29.91240 | 1886 ft | 219 kts | 259° |
| 2026-05-05 16:04 | 31.16048 | 29.89509 | 2979 ft | 220 kts | 303° |
| 2026-05-05 16:05 | 31.17225 | 29.88567 | 3917 ft | 205 kts | 350° |
| 2026-05-05 16:05 | 31.18624 | 29.88488 | 4625 ft | 198 kts | 353° |
| 2026-05-05 16:05 | 31.19978 | 29.88299 | 5255 ft | 194 kts | 347° |
| 2026-05-05 16:05 | 31.21273 | 29.87906 | 5819 ft | 190 kts | 339° |
| 2026-05-05 16:06 | 31.22511 | 29.87360 | 6320 ft | 193 kts | 335° |
| 2026-05-05 16:06 | 31.23762 | 29.86676 | 6626 ft | 203 kts | 331° |
| 2026-05-05 16:06 | 31.25019 | 29.85884 | 6953 ft | 213 kts | 330° |
| 2026-05-05 16:06 | 31.26204 | 29.84735 | 7135 ft | 228 kts | 307° |
| 2026-05-05 16:07 | 31.27313 | 29.83365 | 7353 ft | 244 kts | 321° |
| 2026-05-05 16:07 | 31.28806 | 29.82291 | 7650 ft | 258 kts | 331° |
| 2026-05-05 16:07 | 31.30459 | 29.81420 | 8129 ft | 263 kts | 335° |
| 2026-05-05 16:07 | 31.32179 | 29.80628 | 8645 ft | 267 kts | 336° |
| 2026-05-05 16:08 | 31.33922 | 29.79834 | 9192 ft | 270 kts | 335° |
| 2026-05-05 16:08 | 31.37203 | 29.78232 | 10181 ft | 276 kts | 333° |
| 2026-05-05 16:08 | 31.44794 | 29.74138 | 11030 ft | 325 kts | 332° |
| 2026-05-05 16:08 | 31.53390 | 29.69447 | 12359 ft | 347 kts | 332° |
| 2026-05-05 16:09 | 31.62309 | 29.64586 | 13950 ft | 358 kts | 333° |
| 2026-05-05 16:09 | 31.71345 | 29.59649 | 15592 ft | 359 kts | 331° |
| 2026-05-05 16:09 | 31.80299 | 29.54741 | 17204 ft | 361 kts | 330° |
| 2026-05-05 16:09 | 31.89510 | 29.49678 | 18632 ft | 368 kts | 331° |
| 2026-05-05 16:10 | 31.98348 | 29.44818 | 19797 ft | 374 kts | 330° |
| 2026-05-05 16:10 | 32.07649 | 29.39195 | 21016 ft | 377 kts | 326° |
| 2026-05-05 16:10 | 32.16947 | 29.33128 | 22135 ft | 385 kts | 327° |
| 2026-05-05 16:10 | 32.26435 | 29.27069 | 23308 ft | 389 kts | 327° |
| 2026-05-05 16:11 | 32.35872 | 29.21008 | 24271 ft | 393 kts | 327° |
| 2026-05-05 16:11 | 32.65072 | 29.02180 | 27083 ft | 404 kts | 327° |
| 2026-05-05 16:12 | 32.75009 | 28.95740 | 28103 ft | 408 kts | 327° |
| 2026-05-05 16:12 | 32.95181 | 28.82617 | 30256 ft | 418 kts | 327° |
| 2026-05-05 16:13 | 33.26627 | 28.62021 | 32955 ft | 437 kts | 327° |
| 2026-05-05 16:13 | 33.37321 | 28.54983 | 34011 ft | 437 kts | 327° |
| 2026-05-05 16:13 | 33.47986 | 28.47940 | 34878 ft | 438 kts | 327° |
| 2026-05-05 16:14 | 33.69276 | 28.33818 | 36643 ft | 438 kts | 328° |
| 2026-05-05 16:14 | 33.90549 | 28.19570 | 38275 ft | 438 kts | 327° |
| 2026-05-05 16:15 | 34.11843 | 28.05130 | 39488 ft | 437 kts | 328° |
| 2026-05-05 16:15 | 34.33092 | 27.90647 | 40053 ft | 440 kts | 327° |
| 2026-05-05 16:16 | 34.75463 | 27.61458 | 40046 ft | 439 kts | 327° |
| 2026-05-05 16:17 | 35.07252 | 27.39292 | 40036 ft | 437 kts | 327° |
| 2026-05-05 16:18 | 35.38932 | 27.16999 | 40050 ft | 437 kts | 327° |
| 2026-05-05 16:19 | 35.67853 | 26.89900 | 40048 ft | 436 kts | 320° |
| 2026-05-05 16:19 | 35.96275 | 26.62198 | 40051 ft | 436 kts | 320° |
| 2026-05-05 16:20 | 36.34110 | 26.24909 | 40055 ft | 435 kts | 320° |
| 2026-05-05 16:22 | 36.73737 | 25.85338 | 40053 ft | 433 kts | 320° |
| 2026-05-05 16:23 | 36.83096 | 25.75914 | 40054 ft | 433 kts | 320° |
| 2026-05-05 16:23 | 36.90137 | 25.68818 | 40052 ft | 433 kts | 321° |
| 2026-05-05 16:24 | 36.94869 | 25.64141 | 40050 ft | 433 kts | 321° |
| 2026-05-05 16:25 | 37.01969 | 25.57132 | 40046 ft | 433 kts | 321° |
| 2026-05-05 16:25 | 37.08878 | 25.50271 | 40051 ft | 433 kts | 321° |
| 2026-05-05 16:26 | 37.18277 | 25.40901 | 40047 ft | 433 kts | 321° |
| 2026-05-05 16:27 | 37.22992 | 25.36189 | 40049 ft | 434 kts | 321° |
| 2026-05-05 16:27 | 37.27724 | 25.31454 | 40045 ft | 435 kts | 321° |
| 2026-05-05 16:28 | 37.32447 | 25.26719 | 40058 ft | 434 kts | 321° |
| 2026-05-05 16:28 | 37.37165 | 25.21982 | 40063 ft | 434 kts | 321° |
| 2026-05-05 16:29 | 37.41880 | 25.17239 | 40069 ft | 434 kts | 320° |
| 2026-05-05 16:29 | 37.46590 | 25.12494 | 40069 ft | 434 kts | 320° |
| 2026-05-05 16:30 | 37.51271 | 25.07769 | 40071 ft | 434 kts | 321° |
| 2026-05-05 16:30 | 37.55982 | 25.03007 | 40069 ft | 435 kts | 321° |
| 2026-05-05 16:31 | 37.60702 | 24.98228 | 40064 ft | 434 kts | 321° |
| 2026-05-05 16:31 | 37.65408 | 24.93457 | 40060 ft | 434 kts | 321° |
| 2026-05-05 16:32 | 37.70119 | 24.88670 | 40055 ft | 434 kts | 321° |
| 2026-05-05 16:32 | 37.74826 | 24.83880 | 40050 ft | 434 kts | 321° |
| 2026-05-05 16:33 | 37.79530 | 24.79085 | 40045 ft | 434 kts | 321° |
| 2026-05-05 16:33 | 37.84233 | 24.74283 | 40045 ft | 434 kts | 321° |
| 2026-05-05 16:34 | 37.88926 | 24.69483 | 40045 ft | 434 kts | 321° |
| 2026-05-05 16:34 | 37.93592 | 24.64703 | 40045 ft | 434 kts | 321° |
| 2026-05-05 16:35 | 37.98287 | 24.59884 | 40045 ft | 434 kts | 321° |
| 2026-05-05 16:35 | 38.02983 | 24.55056 | 40044 ft | 434 kts | 320° |
| 2026-05-05 16:36 | 38.07675 | 24.50221 | 40037 ft | 434 kts | 320° |
| 2026-05-05 16:36 | 38.12332 | 24.45419 | 40046 ft | 433 kts | 320° |
| 2026-05-05 16:37 | 38.17022 | 24.40570 | 40039 ft | 434 kts | 320° |
| 2026-05-05 16:37 | 38.21703 | 24.35727 | 40039 ft | 434 kts | 320° |
| 2026-05-05 16:38 | 38.26381 | 24.30880 | 40041 ft | 434 kts | 320° |
| 2026-05-05 16:38 | 38.31056 | 24.26025 | 40051 ft | 434 kts | 320° |
| 2026-05-05 16:39 | 38.35732 | 24.21160 | 40040 ft | 435 kts | 320° |
| 2026-05-05 16:39 | 38.40436 | 24.16258 | 40040 ft | 436 kts | 320° |
| 2026-05-05 16:40 | 38.45103 | 24.11386 | 40037 ft | 436 kts | 320° |
| 2026-05-05 16:40 | 38.49796 | 24.06478 | 40028 ft | 435 kts | 320° |
| 2026-05-05 16:41 | 38.54486 | 24.01565 | 40035 ft | 436 kts | 320° |
| 2026-05-05 16:41 | 38.59169 | 23.96650 | 40048 ft | 436 kts | 320° |
| 2026-05-05 16:42 | 38.63833 | 23.91746 | 40037 ft | 436 kts | 320° |
| 2026-05-05 16:42 | 38.68520 | 23.86807 | 40027 ft | 436 kts | 320° |
| 2026-05-05 16:43 | 38.73207 | 23.81863 | 40029 ft | 436 kts | 320° |
| 2026-05-05 16:43 | 38.77889 | 23.76917 | 40029 ft | 436 kts | 320° |
| 2026-05-05 16:44 | 38.82570 | 23.71965 | 40028 ft | 436 kts | 320° |
| 2026-05-05 16:44 | 38.87243 | 23.67008 | 40039 ft | 435 kts | 320° |
| 2026-05-05 16:45 | 38.91910 | 23.62048 | 40024 ft | 435 kts | 320° |
| 2026-05-05 16:45 | 38.96573 | 23.57085 | 40023 ft | 435 kts | 320° |
| 2026-05-05 16:46 | 39.01239 | 23.52111 | 40022 ft | 435 kts | 320° |
| 2026-05-05 16:46 | 39.05903 | 23.47130 | 40021 ft | 435 kts | 320° |
| 2026-05-05 16:47 | 39.10533 | 23.42177 | 40011 ft | 435 kts | 319° |
| 2026-05-05 16:47 | 39.15212 | 23.37163 | 40024 ft | 434 kts | 319° |
| 2026-05-05 16:48 | 39.19831 | 23.32202 | 40021 ft | 435 kts | 319° |
| 2026-05-05 16:48 | 39.24479 | 23.27201 | 40019 ft | 435 kts | 319° |
| 2026-05-05 16:49 | 39.29123 | 23.22197 | 40016 ft | 435 kts | 319° |
| 2026-05-05 16:49 | 39.33763 | 23.17189 | 40011 ft | 435 kts | 319° |
| 2026-05-05 16:50 | 39.37614 | 23.13024 | 40019 ft | 435 kts | 319° |
| 2026-05-05 16:50 | 39.42192 | 23.08067 | 40016 ft | 435 kts | 319° |
| 2026-05-05 16:51 | 39.46848 | 23.03014 | 40012 ft | 438 kts | 319° |
| 2026-05-05 16:51 | 39.47635 | 23.02160 | 40010 ft | 437 kts | 319° |
| 2026-05-05 16:52 | 39.50596 | 22.98941 | 40009 ft | 437 kts | 319° |
| 2026-05-05 16:52 | 39.55254 | 22.93872 | 40008 ft | 437 kts | 319° |
| 2026-05-05 16:53 | 39.59903 | 22.88802 | 40009 ft | 436 kts | 319° |
| 2026-05-05 16:53 | 39.64515 | 22.83764 | 40004 ft | 436 kts | 319° |
| 2026-05-05 16:54 | 39.69158 | 22.78681 | 40010 ft | 436 kts | 319° |
| 2026-05-05 16:54 | 39.73806 | 22.73584 | 40005 ft | 436 kts | 319° |
| 2026-05-05 16:55 | 39.78435 | 22.68501 | 40006 ft | 435 kts | 319° |
| 2026-05-05 16:55 | 39.83064 | 22.63402 | 40006 ft | 436 kts | 319° |
| 2026-05-05 16:56 | 39.87697 | 22.58295 | 40022 ft | 436 kts | 319° |
| 2026-05-05 16:56 | 39.92297 | 22.53216 | 40025 ft | 436 kts | 319° |
| 2026-05-05 16:57 | 39.96915 | 22.48105 | 40029 ft | 436 kts | 319° |
| 2026-05-05 16:57 | 40.01538 | 22.42981 | 40029 ft | 436 kts | 319° |
| 2026-05-05 16:58 | 40.06170 | 22.37835 | 40045 ft | 438 kts | 319° |
| 2026-05-05 16:58 | 40.10810 | 22.32674 | 40042 ft | 438 kts | 319° |
| 2026-05-05 16:59 | 40.15442 | 22.27511 | 40044 ft | 437 kts | 319° |
| 2026-05-05 16:59 | 40.20068 | 22.22346 | 40049 ft | 438 kts | 319° |
| 2026-05-05 17:00 | 40.24691 | 22.17169 | 40055 ft | 436 kts | 319° |
| 2026-05-05 17:00 | 40.29300 | 22.12002 | 40041 ft | 436 kts | 319° |
| 2026-05-05 17:01 | 40.33885 | 22.06856 | 40049 ft | 435 kts | 319° |
| 2026-05-05 17:01 | 40.38483 | 22.01683 | 40047 ft | 435 kts | 319° |
| 2026-05-05 17:02 | 40.43081 | 21.96500 | 40047 ft | 435 kts | 319° |
| 2026-05-05 17:02 | 40.47671 | 21.91316 | 40051 ft | 436 kts | 319° |
| 2026-05-05 17:03 | 40.52267 | 21.86116 | 40051 ft | 436 kts | 319° |
| 2026-05-05 17:03 | 40.56862 | 21.80906 | 40050 ft | 436 kts | 319° |
| 2026-05-05 17:04 | 40.61467 | 21.75675 | 40050 ft | 437 kts | 318° |
| 2026-05-05 17:04 | 40.66065 | 21.70443 | 40050 ft | 437 kts | 318° |
| 2026-05-05 17:05 | 40.70630 | 21.65239 | 40050 ft | 436 kts | 318° |
| 2026-05-05 17:05 | 40.75225 | 21.59991 | 40053 ft | 437 kts | 318° |
| 2026-05-05 17:06 | 40.79812 | 21.54741 | 40048 ft | 436 kts | 318° |
| 2026-05-05 17:06 | 40.84402 | 21.49478 | 40047 ft | 436 kts | 318° |
| 2026-05-05 17:07 | 40.88988 | 21.44211 | 40047 ft | 436 kts | 318° |
| 2026-05-05 17:07 | 40.93570 | 21.38937 | 40050 ft | 436 kts | 318° |
| 2026-05-05 17:08 | 40.98149 | 21.33656 | 40050 ft | 437 kts | 318° |
| 2026-05-05 17:08 | 41.02728 | 21.28366 | 40052 ft | 437 kts | 318° |
| 2026-05-05 17:09 | 41.07310 | 21.23062 | 40053 ft | 438 kts | 318° |
| 2026-05-05 17:09 | 41.11867 | 21.17776 | 40052 ft | 438 kts | 318° |
| 2026-05-05 17:10 | 41.16448 | 21.12452 | 40059 ft | 438 kts | 318° |
| 2026-05-05 17:10 | 41.21022 | 21.07128 | 40064 ft | 437 kts | 318° |
| 2026-05-05 17:11 | 41.25592 | 21.01799 | 40059 ft | 437 kts | 318° |
| 2026-05-05 17:11 | 41.30161 | 20.96460 | 40069 ft | 437 kts | 317° |
| 2026-05-05 17:12 | 41.34736 | 20.91100 | 40065 ft | 438 kts | 317° |
| 2026-05-05 17:12 | 41.39311 | 20.85733 | 40068 ft | 438 kts | 317° |
| 2026-05-05 17:13 | 41.43886 | 20.80354 | 40057 ft | 439 kts | 317° |
| 2026-05-05 17:13 | 41.48471 | 20.74954 | 40061 ft | 439 kts | 317° |
| 2026-05-05 17:14 | 41.53013 | 20.69593 | 40077 ft | 439 kts | 317° |
| 2026-05-05 17:14 | 41.57596 | 20.64170 | 40068 ft | 441 kts | 317° |
| 2026-05-05 17:15 | 41.62195 | 20.58721 | 40076 ft | 441 kts | 317° |
| 2026-05-05 17:15 | 41.66779 | 20.53277 | 40069 ft | 440 kts | 317° |
| 2026-05-05 17:16 | 41.71492 | 20.48018 | 40075 ft | 441 kts | 321° |
| 2026-05-05 17:16 | 41.76330 | 20.43035 | 40083 ft | 441 kts | 321° |
| 2026-05-05 17:17 | 41.81222 | 20.37971 | 40085 ft | 443 kts | 321° |
| 2026-05-05 17:17 | 41.86048 | 20.32892 | 40087 ft | 444 kts | 320° |
| 2026-05-05 17:18 | 41.90900 | 20.27740 | 40087 ft | 444 kts | 320° |
| 2026-05-05 17:18 | 41.95741 | 20.22584 | 40080 ft | 444 kts | 320° |
| 2026-05-05 17:19 | 42.00581 | 20.17419 | 40081 ft | 444 kts | 320° |
| 2026-05-05 17:19 | 42.05421 | 20.12248 | 40076 ft | 445 kts | 320° |
| 2026-05-05 17:20 | 42.10238 | 20.07092 | 40077 ft | 445 kts | 320° |
| 2026-05-05 17:20 | 42.15114 | 20.01863 | 40074 ft | 445 kts | 320° |
| 2026-05-05 17:21 | 42.19923 | 19.96694 | 40075 ft | 445 kts | 320° |
| 2026-05-05 17:22 | 42.27189 | 19.88865 | 40080 ft | 445 kts | 320° |
| 2026-05-05 17:22 | 42.34407 | 19.81061 | 40079 ft | 446 kts | 320° |
| 2026-05-05 17:23 | 42.53653 | 19.59922 | 40062 ft | 444 kts | 314° |
| 2026-05-05 17:23 | 42.71002 | 19.35939 | 40079 ft | 443 kts | 313° |
| 2026-05-05 17:24 | 42.88112 | 19.11919 | 40059 ft | 445 kts | 312° |
| 2026-05-05 17:24 | 43.05311 | 18.87572 | 40068 ft | 446 kts | 312° |
| 2026-05-05 17:25 | 43.22546 | 18.62965 | 40072 ft | 447 kts | 311° |
| 2026-05-05 17:25 | 43.39730 | 18.38215 | 40092 ft | 448 kts | 311° |
| 2026-05-05 17:26 | 43.56934 | 18.13215 | 40080 ft | 450 kts | 311° |
| 2026-05-05 17:26 | 43.74084 | 17.88070 | 40063 ft | 450 kts | 311° |
| 2026-05-05 17:27 | 43.91242 | 17.62688 | 40064 ft | 451 kts | 311° |
| 2026-05-05 17:27 | 44.08401 | 17.37074 | 40049 ft | 452 kts | 310° |
| 2026-05-05 17:28 | 44.25389 | 17.11481 | 40033 ft | 453 kts | 310° |
| 2026-05-05 17:28 | 44.42510 | 16.85451 | 40023 ft | 455 kts | 310° |
| 2026-05-05 17:29 | 44.59622 | 16.59188 | 40004 ft | 457 kts | 309° |
| 2026-05-05 17:29 | 44.76735 | 16.32677 | 39995 ft | 458 kts | 309° |
| 2026-05-05 17:30 | 44.93839 | 16.05924 | 40004 ft | 460 kts | 309° |
| 2026-05-05 17:30 | 45.10943 | 15.78915 | 39997 ft | 462 kts | 309° |
| 2026-05-05 17:31 | 45.28049 | 15.51630 | 39974 ft | 466 kts | 309° |
| 2026-05-05 17:31 | 45.45095 | 15.24183 | 39977 ft | 464 kts | 308° |
| 2026-05-05 17:32 | 45.62149 | 14.96441 | 39988 ft | 464 kts | 308° |
| 2026-05-05 17:32 | 45.73391 | 14.78001 | 39986 ft | 467 kts | 308° |
| 2026-05-05 17:33 | 45.90455 | 14.49778 | 39993 ft | 469 kts | 308° |
| 2026-05-05 17:33 | 46.07477 | 14.21333 | 39985 ft | 468 kts | 307° |
| 2026-05-05 17:34 | 46.24422 | 13.92726 | 40002 ft | 469 kts | 307° |
| 2026-05-05 17:34 | 46.41168 | 13.64151 | 39995 ft | 470 kts | 307° |
| 2026-05-05 17:35 | 46.57782 | 13.34725 | 39995 ft | 469 kts | 301° |
| 2026-05-05 17:35 | 46.69595 | 13.08339 | 39993 ft | 468 kts | 300° |
| 2026-05-05 17:36 | 46.83683 | 12.76418 | 39958 ft | 467 kts | 299° |
| 2026-05-05 17:36 | 46.97710 | 12.44290 | 39949 ft | 468 kts | 299° |
| 2026-05-05 17:37 | 47.11634 | 12.11997 | 39892 ft | 469 kts | 298° |
| 2026-05-05 17:37 | 47.25591 | 11.79704 | 39853 ft | 469 kts | 300° |
| 2026-05-05 17:38 | 47.40131 | 11.47574 | 39829 ft | 471 kts | 299° |
| 2026-05-05 17:38 | 47.54546 | 11.15132 | 39830 ft | 473 kts | 299° |
| 2026-05-05 17:39 | 47.67221 | 10.90487 | 39842 ft | 479 kts | 304° |
| 2026-05-05 17:39 | 47.71331 | 10.82752 | 39847 ft | 481 kts | 304° |